Time;durP1;ratioP1;P1;durP2;ratioP2;P2;SDS_P1;SDS_P2;PMS_P1;PMS_P2;Temp;Humidity;BMP_temperature;BMP_pressure;BME280_temperature;BME280_humidity;BME280_pressure;Samples;Min_cycle;Max_cycle;Signal;HPM_P1;HPM_P2
2022/12/21 04:01:33;;;;;;;4.40;2.40;;;7.90;48.00;;;;;;5686033;23;46862;-64
2022/12/21 04:04:08;;;;;;;3.42;2.45;;;7.90;48.00;;;;;;4910019;28;46066;-59
2022/12/21 04:06:34;;;;;;;2.90;2.30;;;7.90;48.00;;;;;;4921558;28;45235;-63
2022/12/21 04:09:01;;;;;;;2.88;2.17;;;7.90;48.00;;;;;;4934014;28;45353;-60
2022/12/21 04:14:19;;;;;;;4.07;2.47;;;7.90;48.00;;;;;;4938257;28;46088;-72
2022/12/21 04:16:45;;;;;;;3.17;2.13;;;7.90;48.00;;;;;;4943874;28;45276;-61
2022/12/21 04:21:54;;;;;;;3.00;2.17;;;7.90;48.00;;;;;;4951329;28;45217;-62
2022/12/21 04:29:49;;;;;;;3.30;2.17;;;7.90;48.00;;;;;;4949609;28;45424;-57
2022/12/21 04:32:14;;;;;;;2.97;1.90;;;7.90;48.00;;;;;;4950029;28;45399;-59
2022/12/21 04:34:40;;;;;;;3.13;2.22;;;7.90;48.00;;;;;;4948142;28;46030;-60
2022/12/21 04:39:49;;;;;;;4.40;2.47;;;7.90;48.00;;;;;;4950454;28;45476;-59
2022/12/21 04:42:15;;;;;;;3.72;2.67;;;7.90;48.00;;;;;;4957434;28;45330;-56
2022/12/21 04:44:40;;;;;;;2.45;2.00;;;7.90;48.00;;;;;;4948837;28;45011;-55
2022/12/21 04:47:06;;;;;;;3.70;2.47;;;7.90;48.00;;;;;;4952500;28;45418;-55
2022/12/21 04:49:31;;;;;;;2.95;2.15;;;7.90;48.00;;;;;;4958103;28;45494;-59
2022/12/21 04:51:57;;;;;;;3.67;2.40;;;7.90;48.00;;;;;;4952047;28;44908;-59
2022/12/21 04:54:23;;;;;;;3.30;2.30;;;7.90;48.00;;;;;;4938118;28;45992;-61
2022/12/21 04:56:48;;;;;;;3.33;2.33;;;8.00;48.00;;;;;;4954314;28;45506;-59
2022/12/21 04:59:14;;;;;;;2.65;2.00;;;8.00;48.00;;;;;;4945964;28;45750;-58
2022/12/21 05:01:39;;;;;;;3.33;2.17;;;8.00;48.00;;;;;;4951485;28;44770;-58
2022/12/21 05:04:05;;;;;;;3.63;2.20;;;8.00;48.00;;;;;;4957717;28;47010;-59
2022/12/21 05:06:31;;;;;;;3.58;2.20;;;7.90;48.00;;;;;;4955443;28;45788;-58
2022/12/21 05:08:57;;;;;;;3.03;2.13;;;7.90;48.00;;;;;;4954248;28;45029;-62
2022/12/21 05:11:23;;;;;;;3.80;2.33;;;8.00;48.00;;;;;;4953419;28;45653;-62
2022/12/21 05:13:48;;;;;;;3.50;2.20;;;7.90;48.00;;;;;;4956823;28;47219;-59
2022/12/21 05:16:18;;;;;;;2.50;1.92;;;7.90;48.00;;;;;;4938232;28;45392;-70
2022/12/21 05:18:44;;;;;;;3.38;2.40;;;8.00;48.00;;;;;;4958118;28;45246;-66
2022/12/21 05:21:10;;;;;;;2.83;2.08;;;8.00;48.00;;;;;;4944700;28;45774;-56
2022/12/21 05:23:36;;;;;;;3.60;2.10;;;8.00;48.00;;;;;;4954608;28;46123;-55
2022/12/21 05:26:02;;;;;;;2.63;2.05;;;8.00;48.00;;;;;;4941087;28;44641;-55
2022/12/21 05:28:28;;;;;;;3.17;2.13;;;8.00;48.00;;;;;;4954924;28;45337;-50
2022/12/21 05:30:54;;;;;;;3.25;2.15;;;8.00;48.60;;;;;;4955204;28;45300;-58
2022/12/21 05:33:19;;;;;;;3.67;2.38;;;8.00;48.00;;;;;;4958299;28;46127;-59
2022/12/21 05:35:45;;;;;;;4.00;2.28;;;8.00;48.00;;;;;;4956927;28;45185;-53
2022/12/21 05:38:10;;;;;;;3.28;2.00;;;8.00;48.00;;;;;;4951073;28;45366;-60
2022/12/21 05:40:36;;;;;;;3.42;2.20;;;8.00;48.00;;;;;;4948983;28;45431;-56
2022/12/21 05:43:02;;;;;;;4.68;2.30;;;8.00;48.00;;;;;;4955521;28;46569;-59
2022/12/21 05:45:27;;;;;;;2.80;2.03;;;8.00;48.00;;;;;;4950396;28;45495;-56
2022/12/21 05:47:56;;;;;;;3.67;2.08;;;8.00;48.00;;;;;;4956481;28;45367;-54
2022/12/21 05:50:22;;;;;;;3.20;1.85;;;8.00;48.00;;;;;;4958740;28;45481;-58
2022/12/21 05:52:47;;;;;;;2.42;2.10;;;8.00;48.00;;;;;;4956608;28;45329;-59
2022/12/21 05:55:13;;;;;;;3.08;2.13;;;8.00;48.00;;;;;;4951404;28;45527;-56
2022/12/21 05:57:38;;;;;;;3.53;2.50;;;8.00;48.00;;;;;;4959083;28;46167;-55
2022/12/21 06:00:04;;;;;;;2.40;1.95;;;8.00;48.00;;;;;;4955403;28;45117;-53
2022/12/21 06:02:30;;;;;;;3.53;1.98;;;8.00;48.00;;;;;;4952124;28;46121;-58
2022/12/21 06:04:56;;;;;;;3.03;2.10;;;8.00;48.00;;;;;;4958801;28;45605;-58
2022/12/21 06:07:21;;;;;;;2.63;2.00;;;8.00;48.00;;;;;;4955854;28;45427;-60
2022/12/21 06:09:47;;;;;;;3.08;2.10;;;8.00;48.00;;;;;;4954931;28;45290;-62
2022/12/21 06:12:13;;;;;;;3.00;2.20;;;8.00;48.00;;;;;;4953967;28;46228;-59
2022/12/21 06:14:38;;;;;;;3.10;2.38;;;8.00;48.00;;;;;;4949450;28;46213;-62
2022/12/21 06:17:04;;;;;;;3.17;1.67;;;8.00;48.00;;;;;;4950271;28;46368;-58
2022/12/21 06:19:29;;;;;;;2.40;1.90;;;8.00;48.00;;;;;;4947279;28;46105;-58
2022/12/21 06:21:55;;;;;;;2.33;1.90;;;8.00;48.00;;;;;;4952964;28;45356;-58
2022/12/21 06:24:21;;;;;;;2.60;2.10;;;8.00;48.00;;;;;;4954249;28;45301;-64
2022/12/21 06:26:47;;;;;;;3.03;1.90;;;8.00;48.00;;;;;;4955829;28;45592;-59
2022/12/21 06:29:12;;;;;;;3.05;2.10;;;8.00;48.00;;;;;;4955686;28;45462;-65
2022/12/21 06:31:38;;;;;;;3.03;2.20;;;8.00;48.00;;;;;;4954295;28;46399;-53
2022/12/21 06:34:03;;;;;;;3.22;2.10;;;8.00;48.00;;;;;;4956211;28;45260;-61
2022/12/21 06:36:31;;;;;;;2.92;2.03;;;8.00;48.00;;;;;;4954051;28;45543;-60
2022/12/21 06:38:56;;;;;;;3.22;2.08;;;8.00;48.00;;;;;;4957091;28;44900;-61
2022/12/21 06:41:22;;;;;;;3.85;2.20;;;8.00;48.00;;;;;;4948575;28;46164;-56
2022/12/21 06:43:47;;;;;;;2.88;2.20;;;8.00;48.00;;;;;;4954861;28;45269;-66
2022/12/21 06:46:14;;;;;;;2.92;1.95;;;8.00;48.00;;;;;;4951703;28;45133;-57
2022/12/21 06:48:40;;;;;;;2.70;2.20;;;8.00;48.00;;;;;;4955900;28;45434;-52
2022/12/21 06:51:09;;;;;;;3.30;2.05;;;8.00;48.00;;;;;;4954539;28;45972;-59
2022/12/21 06:53:35;;;;;;;3.28;2.20;;;8.00;48.00;;;;;;4937373;28;45205;-61
2022/12/21 06:56:03;;;;;;;3.85;2.08;;;8.00;48.00;;;;;;4957569;28;45449;-52
2022/12/21 06:58:29;;;;;;;2.75;2.10;;;8.00;48.10;;;;;;4955261;28;44704;-61
2022/12/21 07:00:54;;;;;;;2.92;2.03;;;8.00;48.00;;;;;;4950534;28;45974;-62
2022/12/21 07:03:20;;;;;;;3.10;2.15;;;8.00;48.00;;;;;;4946056;28;45371;-67
2022/12/21 07:05:46;;;;;;;3.70;2.10;;;8.00;48.00;;;;;;4932923;28;44742;-59
2022/12/21 07:08:11;;;;;;;2.15;1.58;;;8.00;48.00;;;;;;4951485;28;45966;-62
2022/12/21 07:10:38;;;;;;;2.88;2.20;;;8.10;48.10;;;;;;4945090;28;46178;-60
2022/12/21 07:13:03;;;;;;;3.72;2.00;;;8.00;48.00;;;;;;4944999;28;44737;-61
2022/12/21 07:15:32;;;;;;;2.92;2.13;;;8.10;48.10;;;;;;4942220;28;45697;-61
2022/12/21 07:17:57;;;;;;;2.70;2.20;;;8.00;48.00;;;;;;4946432;28;45373;-58
2022/12/21 07:20:23;;;;;;;3.10;2.10;;;8.10;48.10;;;;;;4943822;28;46145;-59
2022/12/21 07:22:48;;;;;;;3.35;2.20;;;8.10;48.10;;;;;;4945841;28;45320;-55
2022/12/21 07:25:14;;;;;;;2.90;2.33;;;8.10;48.00;;;;;;4927549;28;45586;-60
2022/12/21 07:27:40;;;;;;;4.15;2.25;;;8.00;48.00;;;;;;4944784;28;44924;-60
2022/12/21 07:30:06;;;;;;;2.35;1.85;;;8.00;48.00;;;;;;4941835;28;46190;-61
2022/12/21 07:32:32;;;;;;;3.20;2.22;;;8.10;48.00;;;;;;4947813;28;45274;-55
2022/12/21 07:34:57;;;;;;;3.35;2.20;;;8.10;48.10;;;;;;4952928;28;45597;-59
2022/12/21 07:37:23;;;;;;;3.17;2.20;;;8.10;48.10;;;;;;4945597;28;45778;-57
2022/12/21 07:39:49;;;;;;;2.80;1.83;;;8.00;48.00;;;;;;4959487;28;46139;-54
2022/12/21 07:42:14;;;;;;;2.30;1.92;;;8.10;48.10;;;;;;4949393;28;45281;-61
2022/12/21 07:44:40;;;;;;;2.08;1.80;;;8.10;48.10;;;;;;4950747;28;44996;-62
2022/12/21 07:47:05;;;;;;;3.00;2.08;;;8.10;48.00;;;;;;4954411;28;44710;-59
2022/12/21 07:49:31;;;;;;;2.50;1.95;;;8.10;48.00;;;;;;4958747;28;46733;-57
2022/12/21 07:51:56;;;;;;;2.50;2.00;;;8.10;48.00;;;;;;4965815;28;45259;-62
2022/12/21 07:54:23;;;;;;;2.63;2.30;;;8.10;48.00;;;;;;4956100;28;44720;-56
2022/12/21 07:56:48;;;;;;;2.88;2.00;;;8.10;48.00;;;;;;4953885;28;45073;-55
2022/12/21 07:59:14;;;;;;;2.55;1.95;;;8.10;48.00;;;;;;4949085;28;45920;-62
2022/12/21 08:01:39;;;;;;;1.73;1.58;;;8.10;48.00;;;;;;4956244;28;45776;-58
2022/12/21 08:04:07;;;;;;;3.35;2.10;;;8.10;48.00;;;;;;4952491;28;44772;-54
2022/12/21 08:06:33;;;;;;;2.38;1.80;;;8.10;48.00;;;;;;4950674;28;45555;-58
2022/12/21 08:08:59;;;;;;;2.97;2.22;;;8.10;48.00;;;;;;4955347;28;46039;-62
2022/12/21 08:11:24;;;;;;;2.83;2.10;;;8.10;48.00;;;;;;4948051;28;45372;-57
2022/12/21 08:13:50;;;;;;;2.78;1.88;;;8.10;48.00;;;;;;4946380;28;45284;-62
2022/12/21 08:16:17;;;;;;;2.30;2.10;;;8.10;48.00;;;;;;4949863;28;45249;-61
2022/12/21 08:18:42;;;;;;;3.00;1.92;;;8.10;48.00;;;;;;4937344;28;47291;-60
2022/12/21 08:21:08;;;;;;;3.80;2.42;;;8.10;48.00;;;;;;4950273;28;45029;-56
2022/12/21 08:23:34;;;;;;;2.85;2.17;;;8.10;48.00;;;;;;4931205;28;45623;-58
2022/12/21 08:26:01;;;;;;;2.47;2.00;;;8.10;48.00;;;;;;4933729;28;45489;-57
2022/12/21 08:28:27;;;;;;;2.10;1.88;;;8.10;48.00;;;;;;4954806;28;47254;-61
2022/12/21 08:30:59;;;;;;;3.28;2.10;;;8.10;48.00;;;;;;4945506;28;45744;-62
2022/12/21 08:33:24;;;;;;;3.47;1.92;;;8.10;48.00;;;;;;4934936;28;45339;-56
2022/12/21 08:35:50;;;;;;;2.30;1.80;;;8.10;48.00;;;;;;4950246;28;45507;-58
2022/12/21 08:38:15;;;;;;;2.70;1.67;;;8.10;48.00;;;;;;4954325;28;45982;-65
2022/12/21 08:40:41;;;;;;;2.85;2.00;;;8.10;48.00;;;;;;4952542;28;45707;-61
2022/12/21 08:43:06;;;;;;;2.03;1.60;;;8.10;48.00;;;;;;4945443;28;44992;-59
2022/12/21 08:45:32;;;;;;;2.65;1.98;;;8.10;48.00;;;;;;4945795;28;46411;-63
2022/12/21 08:47:57;;;;;;;3.40;2.10;;;8.10;48.00;;;;;;4947170;28;45882;-61
2022/12/21 08:50:23;;;;;;;3.08;2.22;;;8.10;48.00;;;;;;4949119;28;45363;-58
2022/12/21 08:52:48;;;;;;;3.53;2.10;;;8.10;48.00;;;;;;4948156;28;45003;-56
2022/12/21 08:55:14;;;;;;;2.72;1.98;;;8.20;48.00;;;;;;4945442;28;45208;-61
2022/12/21 08:57:39;;;;;;;2.00;1.60;;;8.10;47.90;;;;;;4945364;28;47026;-61
2022/12/21 09:00:09;;;;;;;2.97;2.03;;;8.20;48.00;;;;;;4947698;28;45283;-61
2022/12/21 09:02:35;;;;;;;2.47;1.98;;;8.10;48.00;;;;;;4947780;28;45769;-59
2022/12/21 09:05:01;;;;;;;2.63;1.90;;;8.10;48.00;;;;;;4946904;28;45368;-54
2022/12/21 09:07:26;;;;;;;2.67;2.08;;;8.20;48.00;;;;;;4929006;28;47051;-59
2022/12/21 09:09:52;;;;;;;3.10;1.60;;;8.20;48.00;;;;;;4947160;28;45719;-59
2022/12/21 09:12:17;;;;;;;2.85;2.10;;;8.10;48.00;;;;;;4949801;28;44944;-57
2022/12/21 09:14:43;;;;;;;2.58;2.10;;;8.10;48.00;;;;;;4941008;28;46586;-57
2022/12/21 09:17:09;;;;;;;2.90;1.92;;;8.20;48.00;;;;;;4942012;28;46853;-58
2022/12/21 09:19:35;;;;;;;2.67;2.00;;;8.20;48.00;;;;;;4945888;28;45409;-59
2022/12/21 09:22:00;;;;;;;2.55;1.80;;;8.10;48.00;;;;;;4947876;28;45549;-59
2022/12/21 09:24:26;;;;;;;2.95;2.20;;;8.20;48.00;;;;;;4947831;28;45009;-65
2022/12/21 09:26:51;;;;;;;3.45;2.10;;;8.10;48.00;;;;;;4945965;28;45939;-58
2022/12/21 09:29:17;;;;;;;2.45;1.83;;;8.20;48.00;;;;;;4945692;28;45472;-61
2022/12/21 09:31:42;;;;;;;2.60;2.00;;;8.10;48.00;;;;;;4945945;28;45100;-59
2022/12/21 09:34:08;;;;;;;2.63;1.83;;;8.20;48.00;;;;;;4951997;28;45492;-56
2022/12/21 09:36:33;;;;;;;2.72;1.80;;;8.20;48.00;;;;;;4956376;28;46161;-58
2022/12/21 09:38:59;;;;;;;3.47;1.85;;;8.20;48.00;;;;;;4951466;28;45629;-56
2022/12/21 09:41:27;;;;;;;2.30;1.90;;;8.20;48.00;;;;;;4953130;28;45307;-61
2022/12/21 09:44:35;;;;;;;3.28;1.85;;;8.20;48.00;;;;;;4952450;28;45390;-62
2022/12/21 09:47:03;;;;;;;2.47;1.92;;;8.20;48.00;;;;;;4939806;28;46206;-65
2022/12/21 09:49:43;;;;;;;2.40;1.60;;;8.20;48.00;;;;;;4928335;28;45594;-61
2022/12/21 09:52:27;;;;;;;3.28;2.00;;;8.20;48.00;;;;;;4931881;28;45996;-60
2022/12/21 09:55:13;;;;;;;2.40;1.90;;;8.20;48.00;;;;;;4934424;28;44778;-60
2022/12/21 09:57:38;;;;;;;2.88;1.92;;;8.20;48.00;;;;;;4946890;28;46246;-59
2022/12/21 10:00:14;;;;;;;2.97;2.10;;;8.20;48.00;;;;;;4945603;28;45372;-55
2022/12/21 10:02:59;;;;;;;2.65;1.80;;;8.20;48.00;;;;;;4924452;28;45434;-57
2022/12/21 10:05:41;;;;;;;2.65;1.92;;;8.20;48.00;;;;;;4926636;28;45175;-61
2022/12/21 10:08:32;;;;;;;1.98;1.65;;;8.20;48.00;;;;;;4938641;28;45146;-64
2022/12/21 10:11:19;;;;;;;2.67;1.90;;;8.20;48.00;;;;;;4929334;28;45245;-53
2022/12/21 10:13:48;;;;;;;2.15;1.58;;;8.20;48.00;;;;;;4927969;28;45530;-57
2022/12/21 10:16:20;;;;;;;2.17;1.73;;;8.20;48.00;;;;;;4924658;28;45117;-54
2022/12/21 10:19:10;;;;;;;2.00;1.80;;;8.20;48.00;;;;;;4944263;28;46077;-61
2022/12/21 10:21:35;;;;;;;1.90;1.50;;;8.20;48.00;;;;;;4943209;28;45259;-59
2022/12/21 10:24:02;;;;;;;2.42;1.52;;;8.20;48.00;;;;;;4946274;28;45120;-52
2022/12/21 10:26:27;;;;;;;2.65;1.90;;;8.20;47.90;;;;;;4930643;28;45940;-59
2022/12/21 10:29:04;;;;;;;2.08;1.67;;;8.20;48.00;;;;;;4925545;28;46980;-59
2022/12/21 10:31:42;;;;;;;2.08;1.65;;;8.20;48.00;;;;;;4922218;28;45443;-61
2022/12/21 10:34:24;;;;;;;2.33;1.90;;;8.20;48.00;;;;;;4945147;28;45421;-64
2022/12/21 10:36:54;;;;;;;2.83;1.80;;;8.20;48.00;;;;;;4941726;28;45682;-61
2022/12/21 10:39:20;;;;;;;3.35;1.90;;;8.20;48.00;;;;;;4928200;28;46107;-60
2022/12/21 10:41:52;;;;;;;2.38;1.83;;;8.30;48.00;;;;;;4947090;28;45219;-60
2022/12/21 10:44:17;;;;;;;2.13;1.75;;;8.30;48.00;;;;;;4955079;28;45596;-61
2022/12/21 10:46:43;;;;;;;2.35;1.75;;;8.20;47.90;;;;;;4958866;28;45556;-57
2022/12/21 10:49:29;;;;;;;1.80;1.60;;;8.30;47.90;;;;;;4934142;28;45923;-62
2022/12/21 10:51:54;;;;;;;1.70;1.50;;;8.30;48.00;;;;;;4935217;28;45182;-60
2022/12/21 10:54:27;;;;;;;2.17;1.60;;;8.30;47.90;;;;;;4951753;28;45564;-61
2022/12/21 10:56:53;;;;;;;2.60;1.80;;;8.20;47.90;;;;;;4948587;28;45603;-61
2022/12/21 10:59:20;;;;;;;3.90;2.08;;;8.30;48.00;;;;;;4932719;28;46125;-62
2022/12/21 11:01:45;;;;;;;2.33;1.67;;;8.30;48.00;;;;;;4949950;28;45411;-59
2022/12/21 11:04:16;;;;;;;2.88;1.75;;;8.30;48.00;;;;;;4932541;28;45932;-61
2022/12/21 11:07:03;;;;;;;2.80;1.80;;;8.30;48.00;;;;;;4954713;28;45749;-55
2022/12/21 11:09:39;;;;;;;2.63;1.88;;;8.30;48.00;;;;;;4945807;28;46657;-58
2022/12/21 11:12:23;;;;;;;1.98;1.63;;;8.30;48.00;;;;;;4952893;28;45543;-60
2022/12/21 11:14:49;;;;;;;2.05;1.77;;;8.30;48.00;;;;;;4948925;28;45367;-59
2022/12/21 11:17:23;;;;;;;1.90;1.52;;;8.30;48.00;;;;;;4953731;28;44806;-57
2022/12/21 11:19:51;;;;;;;1.95;1.52;;;8.30;48.00;;;;;;4928714;28;45429;-59
2022/12/21 11:22:19;;;;;;;2.65;1.58;;;8.30;47.90;;;;;;4918695;28;45557;-58
2022/12/21 11:24:45;;;;;;;2.33;1.95;;;8.30;48.00;;;;;;4944012;28;44727;-60
2022/12/21 11:27:10;;;;;;;1.75;1.48;;;8.30;48.00;;;;;;4919693;28;45397;-61
2022/12/21 11:29:48;;;;;;;1.90;1.70;;;8.30;48.00;;;;;;4948533;28;46291;-61
2022/12/21 11:32:13;;;;;;;2.22;1.77;;;8.30;48.00;;;;;;4934941;28;45215;-59
2022/12/21 11:34:52;;;;;;;2.10;1.55;;;8.30;47.90;;;;;;4932761;28;45608;-53
2022/12/21 11:37:36;;;;;;;2.28;1.67;;;8.30;47.90;;;;;;4930022;28;45174;-55
2022/12/21 11:40:10;;;;;;;2.60;1.70;;;8.30;47.90;;;;;;4946123;28;46632;-56
2022/12/21 11:42:39;;;;;;;2.55;1.80;;;8.40;47.90;;;;;;4947883;28;45071;-59
2022/12/21 11:45:17;;;;;;;2.20;1.67;;;8.40;47.90;;;;;;4920321;28;45556;-60
2022/12/21 11:47:55;;;;;;;2.53;1.77;;;8.30;47.90;;;;;;4917248;28;45569;-63
2022/12/21 11:50:27;;;;;;;2.65;1.80;;;8.40;47.90;;;;;;4919020;28;45579;-60
2022/12/21 11:53:02;;;;;;;2.22;1.70;;;8.40;47.80;;;;;;4924745;28;45865;-59
2022/12/21 11:55:34;;;;;;;2.83;1.77;;;8.30;47.80;;;;;;4945191;28;45846;-54
2022/12/21 11:58:31;;;;;;;2.20;1.67;;;8.30;47.80;;;;;;4925614;28;45536;-54
2022/12/21 12:01:05;;;;;;;2.13;1.67;;;8.30;47.90;;;;;;4943130;28;46172;-58
2022/12/21 12:03:56;;;;;;;2.58;1.52;;;8.30;47.90;;;;;;4925190;28;44687;-62
2022/12/21 12:06:45;;;;;;;2.55;1.67;;;8.30;47.90;;;;;;4945754;28;46213;-62
2022/12/21 12:09:13;;;;;;;2.35;1.73;;;8.40;47.90;;;;;;4943641;28;45822;-54
2022/12/21 12:12:08;;;;;;;1.92;1.55;;;8.40;48.50;;;;;;4942885;28;48146;-68
2022/12/21 12:14:59;;;;;;;2.60;1.83;;;8.40;47.90;;;;;;4948808;28;45077;-58
2022/12/21 12:17:55;;;;;;;1.88;1.50;;;8.40;48.00;;;;;;4932848;28;44753;-58
2022/12/21 12:20:44;;;;;;;1.98;1.52;;;8.40;47.90;;;;;;4929897;28;46133;-58
2022/12/21 12:23:31;;;;;;;2.03;1.50;;;8.40;48.00;;;;;;4947761;28;46295;-60
2022/12/21 12:26:19;;;;;;;2.53;1.98;;;8.40;47.90;;;;;;4957570;28;45028;-56
2022/12/21 12:28:44;;;;;;;2.00;1.45;;;8.40;47.80;;;;;;4925693;28;44894;-61
2022/12/21 12:31:28;;;;;;;3.00;1.58;;;8.40;47.80;;;;;;4949996;28;45954;-57
2022/12/21 12:34:08;;;;;;;2.17;1.63;;;8.40;47.80;;;;;;4947249;28;46314;-65
2022/12/21 12:36:49;;;;;;;2.15;1.70;;;8.40;47.80;;;;;;4944576;28;45303;-57
2022/12/21 12:39:24;;;;;;;1.85;1.73;;;8.50;47.80;;;;;;4948528;28;45497;-55
2022/12/21 12:42:00;;;;;;;2.08;1.52;;;8.50;47.80;;;;;;4931800;28;45053;-58
2022/12/21 12:44:34;;;;;;;2.17;1.67;;;8.50;47.70;;;;;;4932965;28;46029;-53
2022/12/21 12:47:02;;;;;;;2.00;1.65;;;8.50;47.70;;;;;;4930477;28;45048;-54
2022/12/21 12:49:46;;;;;;;2.63;1.50;;;8.50;47.70;;;;;;4946758;28;44793;-57
2022/12/21 12:52:26;;;;;;;2.33;1.70;;;8.50;47.70;;;;;;4947535;28;45597;-57
2022/12/21 12:55:17;;;;;;;3.05;2.17;;;8.50;47.70;;;;;;4921735;28;46017;-58
2022/12/21 12:57:52;;;;;;;1.73;1.40;;;8.50;47.70;;;;;;4947512;28;45532;-57
2022/12/21 13:00:18;;;;;;;1.85;1.63;;;8.50;47.70;;;;;;4928947;28;46268;-57
2022/12/21 13:03:07;;;;;;;1.67;1.58;;;8.50;47.70;;;;;;4928028;28;46387;-59
2022/12/21 13:05:41;;;;;;;2.75;1.85;;;8.50;47.70;;;;;;4938080;28;46225;-55
2022/12/21 13:08:25;;;;;;;2.65;1.80;;;8.50;47.70;;;;;;4945045;28;46224;-53
2022/12/21 13:10:56;;;;;;;;;;;8.50;47.70;;;;;;4945831;28;45549;-53
2022/12/21 13:13:54;;;;;;;2.35;1.70;;;8.50;47.80;;;;;;4945192;28;45294;-63
2022/12/21 13:16:25;;;;;;;2.20;1.70;;;8.50;47.80;;;;;;4923466;28;45613;-62
2022/12/21 13:18:59;;;;;;;2.17;1.90;;;8.50;47.70;;;;;;4949267;28;45285;-56
2022/12/21 13:21:25;;;;;;;1.98;1.70;;;8.50;47.70;;;;;;4922563;28;45345;-58
2022/12/21 13:24:21;;;;;;;2.03;1.60;;;8.50;47.70;;;;;;4913335;28;45489;-61
2022/12/21 13:26:48;;;;;;;2.78;1.90;;;8.50;47.70;;;;;;4945844;28;46229;-62
2022/12/21 13:29:36;;;;;;;2.40;1.63;;;8.50;47.70;;;;;;4933483;28;45891;-57
2022/12/21 13:32:15;;;;;;;2.35;1.88;;;8.60;47.70;;;;;;4931328;28;46359;-60
2022/12/21 13:34:54;;;;;;;1.67;1.33;;;8.60;47.70;;;;;;4927821;28;45491;-59
2022/12/21 13:37:20;;;;;;;3.22;1.88;;;8.60;47.80;;;;;;4945497;28;46469;-58
2022/12/21 13:40:07;;;;;;;1.88;1.40;;;8.60;47.70;;;;;;4946460;28;45717;-60
2022/12/21 13:42:37;;;;;;;2.45;1.58;;;8.60;47.80;;;;;;4929527;28;45770;-59
2022/12/21 13:45:23;;;;;;;2.22;1.50;;;8.60;47.70;;;;;;4925311;28;45324;-57
2022/12/21 13:47:49;;;;;;;1.63;1.40;;;8.60;47.70;;;;;;4923980;28;45719;-59
2022/12/21 13:50:18;;;;;;;2.22;1.48;;;8.60;47.70;;;;;;4942409;28;46131;-54
2022/12/21 13:52:52;;;;;;;2.15;1.80;;;8.60;47.70;;;;;;4941145;28;44713;-64
2022/12/21 13:55:46;;;;;;;2.40;1.88;;;8.60;47.70;;;;;;4941609;28;45469;-57
2022/12/21 13:58:24;;;;;;;1.65;1.40;;;8.60;47.70;;;;;;4927573;28;45343;-64
2022/12/21 14:01:11;;;;;;;2.10;1.50;;;8.60;47.70;;;;;;4940105;28;45283;-57
2022/12/21 14:03:39;;;;;;;1.77;1.45;;;8.60;47.70;;;;;;4925356;28;46019;-63
2022/12/21 14:06:23;;;;;;;2.10;1.30;;;8.60;47.70;;;;;;4923533;28;46429;-56
2022/12/21 14:08:58;;;;;;;2.13;1.50;;;8.60;47.80;;;;;;4943171;28;45991;-58
2022/12/21 14:11:32;;;;;;;2.25;1.60;;;8.60;47.70;;;;;;4945080;28;45526;-56
2022/12/21 14:14:17;;;;;;;2.83;1.98;;;8.60;47.70;;;;;;4930164;28;45814;-59
2022/12/21 14:16:42;;;;;;;2.35;1.40;;;8.60;47.70;;;;;;4930531;28;45111;-52
2022/12/21 14:19:16;;;;;;;2.67;1.83;;;8.60;47.70;;;;;;4911578;28;46474;-56
2022/12/21 14:21:45;;;;;;;2.03;1.67;;;8.60;47.70;;;;;;4928444;28;45699;-59
2022/12/21 14:24:22;;;;;;;2.03;1.45;;;8.60;47.70;;;;;;4912658;28;45786;-55
2022/12/21 14:27:14;;;;;;;1.55;1.42;;;8.60;47.70;;;;;;4943173;28;45594;-59
2022/12/21 14:29:40;;;;;;;1.48;1.30;;;8.70;47.80;;;;;;4931728;28;46285;-59
2022/12/21 14:32:09;;;;;;;2.42;1.88;;;8.60;47.70;;;;;;4942982;28;47017;-51
2022/12/21 14:34:39;;;;;;;1.83;1.38;;;8.60;47.80;;;;;;4942994;28;44732;-57
2022/12/21 14:37:10;;;;;;;2.42;1.42;;;8.70;47.80;;;;;;4926944;28;45342;-58
2022/12/21 14:39:45;;;;;;;3.00;1.83;;;8.70;47.80;;;;;;4944953;28;46217;-53
2022/12/21 14:42:48;;;;;;;2.13;1.63;;;8.70;47.80;;;;;;4944921;28;45575;-55
2022/12/21 14:45:15;;;;;;;1.67;1.35;;;8.70;47.80;;;;;;4942351;28;44820;-55
2022/12/21 14:47:47;;;;;;;2.42;1.73;;;8.70;47.80;;;;;;4943952;28;44856;-55
2022/12/21 14:50:38;;;;;;;2.08;1.70;;;8.70;47.80;;;;;;4942178;28;46787;-57
2022/12/21 14:53:12;;;;;;;2.05;1.30;;;8.70;47.80;;;;;;4945330;28;45274;-56
2022/12/21 14:55:41;;;;;;;1.67;1.40;;;8.70;47.80;;;;;;4927464;28;45400;-64
2022/12/21 14:58:24;;;;;;;2.00;1.42;;;8.70;47.80;;;;;;4943736;28;45453;-60
2022/12/21 15:01:15;;;;;;;1.65;1.40;;;8.70;47.80;;;;;;4924725;28;45878;-66
2022/12/21 15:03:56;;;;;;;2.55;1.67;;;8.70;47.80;;;;;;4929416;28;45333;-57
2022/12/21 15:06:35;;;;;;;2.47;1.70;;;8.70;47.80;;;;;;4914880;28;45023;-62
2022/12/21 15:09:25;;;;;;;2.20;1.77;;;8.70;47.90;;;;;;4903769;28;45611;-55
2022/12/21 15:11:56;;;;;;;1.77;1.42;;;8.70;47.90;;;;;;4917185;28;47189;-55
2022/12/21 15:14:33;;;;;;;2.00;1.42;;;8.70;47.90;;;;;;4904649;28;45700;-61
2022/12/21 15:16:59;;;;;;;2.10;1.70;;;8.70;47.80;;;;;;4928900;28;45772;-59
2022/12/21 15:19:35;;;;;;;1.50;1.40;;;8.70;47.80;;;;;;4899688;28;45376;-61
2022/12/21 15:22:27;;;;;;;2.15;1.85;;;8.70;47.80;;;;;;4911743;28;46010;-59
2022/12/21 15:24:54;;;;;;;1.73;1.40;;;8.70;47.80;;;;;;4921568;28;45197;-66
2022/12/21 15:27:29;;;;;;;2.00;1.45;;;8.70;47.80;;;;;;4912695;28;45223;-56
2022/12/21 15:30:01;;;;;;;2.40;1.77;;;8.70;47.80;;;;;;4890409;28;45455;-62
2022/12/21 15:32:40;;;;;;;1.80;1.40;;;8.70;47.90;;;;;;4906161;28;45918;-59
2022/12/21 15:35:23;;;;;;;1.60;1.50;;;8.70;47.90;;;;;;4912585;28;45583;-61
2022/12/21 15:37:49;;;;;;;1.60;1.33;;;8.70;47.80;;;;;;4911353;28;46292;-55
2022/12/21 15:40:37;;;;;;;1.75;1.40;;;8.70;47.80;;;;;;4909863;28;45557;-58
2022/12/21 15:43:05;;;;;;;1.58;1.30;;;8.70;47.80;;;;;;4928490;28;45971;-63
2022/12/21 15:45:41;;;;;;;2.10;1.35;;;8.80;47.90;;;;;;4912793;28;45669;-54
2022/12/21 15:48:16;;;;;;;1.90;1.30;;;8.70;47.80;;;;;;4908072;28;45730;-57
2022/12/21 15:50:42;;;;;;;2.30;1.48;;;8.70;47.80;;;;;;4921459;28;45274;-57
2022/12/21 15:53:16;;;;;;;2.55;1.60;;;8.80;47.90;;;;;;4929526;28;46013;-56
2022/12/21 15:55:42;;;;;;;2.00;1.58;;;8.70;47.80;;;;;;4928008;28;45376;-61
2022/12/21 15:58:13;;;;;;;1.45;1.35;;;8.80;47.90;;;;;;4909165;28;45804;-59
2022/12/21 16:00:45;;;;;;;1.85;1.40;;;8.80;47.90;;;;;;4929419;28;45680;-61
2022/12/21 16:03:12;;;;;;;1.85;1.45;;;8.80;47.90;;;;;;4910623;28;46114;-57
2022/12/21 16:05:38;;;;;;;1.63;1.23;;;8.80;47.90;;;;;;4912517;28;45117;-56
2022/12/21 16:08:03;;;;;;;2.38;1.67;;;8.80;48.50;;;;;;4924363;28;45053;-61
2022/12/21 16:10:31;;;;;;;2.10;1.70;;;8.80;47.90;;;;;;4909389;28;45244;-57
2022/12/21 16:13:19;;;;;;;1.42;1.27;;;8.80;47.90;;;;;;4909433;28;45327;-61
2022/12/21 16:15:44;;;;;;;2.35;1.52;;;8.80;47.90;;;;;;4918150;28;45514;-60
2022/12/21 16:18:17;;;;;;;1.85;1.42;;;8.80;47.90;;;;;;4928419;28;45662;-58
2022/12/21 16:21:07;;;;;;;2.00;1.52;;;8.80;47.90;;;;;;4927936;28;45614;-57
2022/12/21 16:23:43;;;;;;;1.83;1.35;;;8.80;47.90;;;;;;4929434;28;46213;-57
2022/12/21 16:26:11;;;;;;;1.25;1.13;;;8.80;47.90;;;;;;4910966;28;45899;-55
2022/12/21 16:28:39;;;;;;;1.50;1.40;;;8.80;47.90;;;;;;4910201;28;45328;-61
2022/12/21 16:31:05;;;;;;;1.75;1.48;;;8.80;47.90;;;;;;4927123;28;45516;-58
2022/12/21 16:33:34;;;;;;;1.45;1.35;;;8.80;47.90;;;;;;4930016;28;46081;-53
2022/12/21 16:36:00;;;;;;;1.63;1.23;;;8.80;47.80;;;;;;4930203;28;46203;-57
2022/12/21 16:38:31;;;;;;;1.98;1.67;;;8.80;47.80;;;;;;4927866;28;45280;-57
2022/12/21 16:40:57;;;;;;;2.10;1.52;;;8.80;47.80;;;;;;4910542;28;45762;-59
2022/12/21 16:43:22;;;;;;;1.40;1.23;;;8.80;47.90;;;;;;4898950;28;46104;-52
2022/12/21 16:45:50;;;;;;;1.55;1.30;;;8.80;47.90;;;;;;4927902;28;45301;-58
2022/12/21 16:48:16;;;;;;;1.50;1.40;;;8.80;47.90;;;;;;4927537;28;45116;-59
2022/12/21 16:50:51;;;;;;;2.55;1.67;;;8.80;47.90;;;;;;4927885;28;45564;-54
2022/12/21 16:53:35;;;;;;;1.50;1.35;;;8.80;47.90;;;;;;4929399;28;46246;-57
2022/12/21 16:56:28;;;;;;;1.60;1.17;;;8.80;47.90;;;;;;4927013;28;44667;-65
2022/12/21 16:59:04;;;;;;;1.30;1.20;;;8.80;47.90;;;;;;4908811;28;44777;-54
2022/12/21 17:01:39;;;;;;;2.30;1.60;;;8.80;47.90;;;;;;4920798;28;45301;-71
2022/12/21 17:04:19;;;;;;;2.55;1.40;;;8.80;48.00;;;;;;4943922;28;46184;-60
2022/12/21 17:06:57;;;;;;;1.50;1.30;;;8.80;47.90;;;;;;4923497;28;45458;-59
2022/12/21 17:09:23;;;;;;;1.45;1.30;;;8.80;47.90;;;;;;4949722;28;45525;-53
2022/12/21 17:11:53;;;;;;;1.20;1.10;;;8.90;47.90;;;;;;4933093;28;45476;-52
2022/12/21 17:14:18;;;;;;;1.58;1.25;;;8.80;47.90;;;;;;4947312;28;46004;-57
2022/12/21 17:17:14;;;;;;;2.25;1.60;;;8.80;47.90;;;;;;4934068;28;45451;-58
2022/12/21 17:20:01;;;;;;;1.73;1.50;;;8.80;47.90;;;;;;4947293;28;45508;-58
2022/12/21 17:22:27;;;;;;;1.90;1.40;;;8.80;47.90;;;;;;4946125;28;45324;-53
2022/12/21 17:25:14;;;;;;;2.35;1.50;;;8.80;47.90;;;;;;4947366;28;46002;-54
2022/12/21 17:27:59;;;;;;;1.83;1.60;;;8.90;47.90;;;;;;4934884;28;45538;-59
2022/12/21 17:30:28;;;;;;;1.88;1.48;;;8.80;47.90;;;;;;4932172;28;45759;-57
2022/12/21 17:32:54;;;;;;;2.40;1.58;;;8.80;47.90;;;;;;4939922;28;45311;-53
2022/12/21 17:35:19;;;;;;;2.20;1.65;;;8.80;48.00;;;;;;4931324;28;45895;-56